createdAt,value
2019-02-04T00:02:34.278Z,55.60
2019-02-04T00:05:14.781Z,55.20
2019-02-04T00:07:43.303Z,55.40
2019-02-04T00:13:06.469Z,54.80
2019-02-04T00:15:47.048Z,54.80
2019-02-04T00:18:27.850Z,55.20
2019-02-04T00:21:08.772Z,55.30
2019-02-04T00:23:49.431Z,54.70
2019-02-04T00:26:30.095Z,55.60
2019-02-04T00:29:10.870Z,55.10
2019-02-04T00:31:51.338Z,55.30
2019-02-04T00:34:32.019Z,55.30
2019-02-04T00:37:12.715Z,55.90
2019-02-04T00:39:53.279Z,55.40
2019-02-04T00:42:34.024Z,55.70
2019-02-04T00:45:14.636Z,56.60
2019-02-04T00:47:55.499Z,56.00
2019-02-04T00:50:36.285Z,56.00
2019-02-04T00:53:17.037Z,56.70
2019-02-04T00:55:57.723Z,56.10
2019-02-04T00:58:38.530Z,57.20
2019-02-04T01:01:19.382Z,56.00
2019-02-04T01:03:47.838Z,55.50
2019-02-04T01:06:35.611Z,55.90
2019-02-04T01:09:23.550Z,55.90
2019-02-04T01:12:11.519Z,55.80
2019-02-04T01:14:59.306Z,55.70
2019-02-04T01:17:47.338Z,56.60
2019-02-04T01:20:35.154Z,56.00
2019-02-04T01:23:22.932Z,56.00
2019-02-04T01:26:10.711Z,55.90
2019-02-04T01:29:00.388Z,55.50
2019-02-04T01:31:28.890Z,55.50
2019-02-04T01:34:16.688Z,56.80
2019-02-04T01:37:04.467Z,56.10
2019-02-04T01:39:52.322Z,56.00
2019-02-04T01:42:41.815Z,56.40
2019-02-04T01:45:29.658Z,56.70
2019-02-04T01:48:17.434Z,56.40
2019-02-04T01:51:05.221Z,56.30
2019-02-04T01:53:52.999Z,57.30
2019-02-04T01:56:40.852Z,56.70
2019-02-04T01:59:28.726Z,56.70
2019-02-04T02:02:16.564Z,56.60
2019-02-04T02:05:05.229Z,56.80
2019-02-04T02:07:54.729Z,56.40
2019-02-04T02:10:35.389Z,56.20
2019-02-04T02:13:15.803Z,56.00
2019-02-04T02:15:56.659Z,56.70
2019-02-04T02:18:37.349Z,57.00
2019-02-04T02:21:18.408Z,57.40
2019-02-04T02:23:58.905Z,56.40
2019-02-04T02:26:39.827Z,57.10
2019-02-04T02:29:20.662Z,58.00
2019-02-04T02:32:01.275Z,57.40
2019-02-04T02:34:42.118Z,57.20
2019-02-04T02:37:22.703Z,57.50
2019-02-04T02:40:03.336Z,57.20
2019-02-04T02:42:44.117Z,57.00
2019-02-04T02:45:24.843Z,57.50
2019-02-04T02:48:05.798Z,57.20
2019-02-04T02:50:46.695Z,57.50
2019-02-04T02:53:27.356Z,57.70
2019-02-04T02:56:08.197Z,58.00
2019-02-04T02:58:49.152Z,57.10
2019-02-04T03:01:29.915Z,57.90
2019-02-04T03:04:10.909Z,56.80
2019-02-04T03:06:51.575Z,57.20
2019-02-04T03:09:32.442Z,57.80
2019-02-04T03:12:12.874Z,57.00
2019-02-04T03:14:53.415Z,57.00
2019-02-04T03:17:34.261Z,57.10
2019-02-04T03:20:15.224Z,57.40
2019-02-04T03:22:59.422Z,57.00
2019-02-04T03:25:40.430Z,57.70
2019-02-04T03:28:21.334Z,58.40
2019-02-04T03:31:02.431Z,57.50
2019-02-04T03:33:43.180Z,57.60
2019-02-04T03:36:23.696Z,57.80
2019-02-04T03:39:04.376Z,57.70
2019-02-04T03:41:45.284Z,57.60
2019-02-04T03:44:25.936Z,57.10
2019-02-04T03:47:06.452Z,57.70
2019-02-04T03:49:47.093Z,58.20
2019-02-04T03:52:27.798Z,58.20
2019-02-04T03:55:08.663Z,57.40
2019-02-04T03:57:49.600Z,57.10
2019-02-04T04:00:30.419Z,57.40
2019-02-04T04:03:11.186Z,57.60
2019-02-04T04:05:52.039Z,57.40
2019-02-04T04:08:33.252Z,57.20
2019-02-04T04:13:44.724Z,57.40
2019-02-04T04:16:32.490Z,58.00
2019-02-04T04:19:20.287Z,58.00
2019-02-04T04:22:08.084Z,57.10
2019-02-04T04:24:55.861Z,58.60
2019-02-04T04:27:43.701Z,58.50
2019-02-04T04:30:31.597Z,59.00
2019-02-04T04:33:19.473Z,59.30
2019-02-04T04:35:47.898Z,58.20
2019-02-04T04:38:36.122Z,59.30
2019-02-04T04:41:23.959Z,58.70
2019-02-04T04:44:11.759Z,59.20
2019-02-04T04:47:01.247Z,58.70
2019-02-04T04:49:49.039Z,59.20
2019-02-04T04:52:36.837Z,58.90
2019-02-04T04:55:45.412Z,58.80
2019-02-04T04:58:33.251Z,59.30
2019-02-04T05:01:21.011Z,59.20
2019-02-04T05:04:10.523Z,58.50
2019-02-04T05:07:00.625Z,58.70
2019-02-04T05:09:47.905Z,58.20
2019-02-04T05:12:28.609Z,58.70
2019-02-04T05:15:09.409Z,58.10
2019-02-04T05:17:52.705Z,57.90
2019-02-04T05:20:33.764Z,58.00
2019-02-04T05:23:17.158Z,58.60
2019-02-04T05:25:56.822Z,58.30
2019-02-04T05:28:37.567Z,58.30
2019-02-04T05:33:48.674Z,58.00
2019-02-04T05:36:36.454Z,59.30
2019-02-04T05:39:24.390Z,58.70
2019-02-04T05:42:12.236Z,58.50
2019-02-04T05:45:00.023Z,58.70
2019-02-04T05:47:48.075Z,58.60
2019-02-04T05:50:35.976Z,58.50
2019-02-04T05:53:25.443Z,59.20
2019-02-04T05:56:13.255Z,58.40
2019-02-04T05:59:01.314Z,59.00
2019-02-04T06:01:29.834Z,58.30
2019-02-04T06:04:17.629Z,59.50
2019-02-04T06:06:46.052Z,59.40
2019-02-04T06:09:33.843Z,59.80
2019-02-04T06:12:14.885Z,59.10
2019-02-04T06:14:55.584Z,59.70
2019-02-04T06:20:19.598Z,59.90
2019-02-04T06:23:00.096Z,60.30
2019-02-04T06:25:40.794Z,60.00
2019-02-04T06:28:21.290Z,61.10
2019-02-04T06:31:02.390Z,60.30
2019-02-04T06:33:43.551Z,60.30
2019-02-04T06:36:24.499Z,60.70
2019-02-04T06:39:05.059Z,60.50
2019-02-04T06:41:45.723Z,60.30
2019-02-04T06:44:26.273Z,60.20
2019-02-04T06:47:07.381Z,59.10
2019-02-04T06:49:48.423Z,59.20
2019-02-04T06:52:29.003Z,58.50
2019-02-04T06:55:09.740Z,58.80
2019-02-04T06:57:50.644Z,59.70
2019-02-04T07:00:31.689Z,59.40
2019-02-04T07:03:12.677Z,58.50
2019-02-04T07:05:53.383Z,59.70
2019-02-04T07:08:34.591Z,59.60
2019-02-04T07:11:15.334Z,59.70
2019-02-04T07:13:55.835Z,58.70
2019-02-04T07:16:36.653Z,59.30
2019-02-04T07:19:24.222Z,58.80
2019-02-04T07:21:59.657Z,59.40
2019-02-04T07:27:23.411Z,58.20
2019-02-04T07:30:04.151Z,58.40
2019-02-04T07:32:45.191Z,58.90
2019-02-04T07:35:25.716Z,58.60
2019-02-04T07:38:06.574Z,58.30
2019-02-04T07:40:47.079Z,58.90
2019-02-04T07:43:27.837Z,58.90
2019-02-04T07:46:12.258Z,58.20
2019-02-04T07:51:36.415Z,57.60
2019-02-04T07:54:16.879Z,57.90
2019-02-04T07:56:57.277Z,58.70
2019-02-04T07:59:38.167Z,58.30
2019-02-04T08:02:19.351Z,59.30
2019-02-04T08:04:47.862Z,58.70
2019-02-04T08:07:37.391Z,59.70
2019-02-04T08:10:18.457Z,60.10
2019-02-04T08:13:01.803Z,59.30
2019-02-04T08:15:51.378Z,58.40
2019-02-04T08:18:39.295Z,58.60
2019-02-04T08:21:27.067Z,57.30
2019-02-04T08:24:14.870Z,56.10
2019-02-04T08:27:02.667Z,55.00
2019-02-04T08:29:50.434Z,54.70
2019-02-04T08:32:38.299Z,54.10
2019-02-04T08:35:26.135Z,54.30
2019-02-04T08:38:13.998Z,54.60
2019-02-04T08:41:01.912Z,54.60
2019-02-04T08:43:50.538Z,54.70
2019-02-04T08:46:40.035Z,54.70
2019-02-04T08:49:27.907Z,54.70
2019-02-04T08:52:15.707Z,54.80
2019-02-04T08:55:03.480Z,54.60
2019-02-04T08:57:51.495Z,54.70
2019-02-04T09:00:39.344Z,54.20
2019-02-04T09:03:27.197Z,55.00
2019-02-04T09:06:16.698Z,53.80
2019-02-04T09:09:25.367Z,54.90
2019-02-04T09:12:06.445Z,55.10
2019-02-04T09:14:46.971Z,55.30
2019-02-04T09:17:27.713Z,55.10
2019-02-04T09:20:10.034Z,54.20
2019-02-04T09:22:51.454Z,53.60
2019-02-04T09:28:15.020Z,52.00
2019-02-04T09:30:55.827Z,51.40
2019-02-04T09:33:36.496Z,51.20
2019-02-04T09:38:59.674Z,50.00
2019-02-04T09:41:40.216Z,49.40
2019-02-04T09:44:21.084Z,48.80
2019-02-04T09:47:01.727Z,48.90
2019-02-04T09:49:42.580Z,48.50
2019-02-04T09:52:23.213Z,48.30
2019-02-04T09:55:03.759Z,48.60
2019-02-04T09:57:44.320Z,48.60
2019-02-04T10:00:24.697Z,47.70
2019-02-04T10:03:05.060Z,47.90
2019-02-04T10:05:45.715Z,47.90
2019-02-04T10:08:26.699Z,47.00
2019-02-04T10:11:07.429Z,46.30
2019-02-04T10:13:48.378Z,44.90
2019-02-04T10:16:29.084Z,44.70
2019-02-04T10:19:09.652Z,45.00
2019-02-04T10:21:50.447Z,44.10
2019-02-04T10:24:30.682Z,44.20
2019-02-04T10:27:11.294Z,43.80
2019-02-04T10:29:52.100Z,43.20
2019-02-04T10:32:32.673Z,41.60
2019-02-04T10:35:16.752Z,42.40
2019-02-04T10:37:55.815Z,39.10
2019-02-04T10:40:36.700Z,40.70
2019-02-04T10:43:17.618Z,42.20
2019-02-04T10:45:59.309Z,39.10
2019-02-04T10:48:40.023Z,40.80
2019-02-04T10:51:20.927Z,42.60
2019-02-04T10:54:01.413Z,40.70
2019-02-04T10:56:41.908Z,41.60
2019-02-04T10:59:22.179Z,40.60
2019-02-04T11:02:02.760Z,39.90
2019-02-04T11:04:43.604Z,42.60
2019-02-04T11:07:24.348Z,42.80
2019-02-04T11:10:05.063Z,43.40
2019-02-04T11:12:45.400Z,43.20
2019-02-04T11:15:26.134Z,42.60
2019-02-04T11:18:06.960Z,41.90
2019-02-04T11:20:57.660Z,42.30
2019-02-04T11:26:12.990Z,42.90
2019-02-04T11:28:53.484Z,42.20
2019-02-04T11:31:34.401Z,42.30
2019-02-04T11:34:15.266Z,41.90
2019-02-04T11:36:56.043Z,41.70
2019-02-04T11:39:36.512Z,40.80
2019-02-04T11:42:17.428Z,40.50
2019-02-04T11:44:58.097Z,40.70
2019-02-04T11:47:39.047Z,41.00
2019-02-04T11:50:20.290Z,41.00
2019-02-04T11:53:01.254Z,40.70
2019-02-04T11:55:41.635Z,40.70
2019-02-04T11:58:22.615Z,40.70
2019-02-04T12:01:03.173Z,40.40
2019-02-04T12:03:43.763Z,40.60
2019-02-04T12:06:24.307Z,40.30
2019-02-04T12:09:05.216Z,40.80
2019-02-04T12:11:45.547Z,40.90
2019-02-04T12:14:26.196Z,40.90
2019-02-04T12:17:06.931Z,41.20
2019-02-04T12:19:47.541Z,41.00
2019-02-04T12:22:28.553Z,40.30
2019-02-04T12:25:09.341Z,40.80
2019-02-04T12:27:49.666Z,40.50
2019-02-04T12:30:31.048Z,40.80
2019-02-04T12:33:12.391Z,41.10
2019-02-04T12:35:53.383Z,40.70
2019-02-04T12:38:34.152Z,39.20
2019-02-04T12:41:14.539Z,39.70
2019-02-04T12:43:55.331Z,39.60
2019-02-04T12:46:35.943Z,39.40
2019-02-04T12:49:19.811Z,39.50
2019-02-04T12:51:59.518Z,39.50
2019-02-04T12:54:40.376Z,38.60
2019-02-04T12:57:21.234Z,37.80
2019-02-04T13:00:01.897Z,35.10
2019-02-04T13:02:42.530Z,36.50
2019-02-04T13:05:23.079Z,36.00
2019-02-04T13:08:03.813Z,35.90
2019-02-04T13:10:44.341Z,35.50
2019-02-04T13:13:25.024Z,31.40
2019-02-04T13:16:05.842Z,33.90
2019-02-04T13:18:46.620Z,33.90
2019-02-04T13:21:27.100Z,34.00
2019-02-04T13:24:07.718Z,33.40
2019-02-04T13:26:48.392Z,34.10
2019-02-04T13:29:28.806Z,32.70
2019-02-04T13:32:09.545Z,32.20
2019-02-04T13:34:50.392Z,32.30
2019-02-04T13:40:13.611Z,31.30
2019-02-04T13:42:54.294Z,30.00
2019-02-04T13:45:34.835Z,28.40
2019-02-04T13:48:15.404Z,28.30
2019-02-04T13:50:56.391Z,29.30
2019-02-04T13:53:36.777Z,29.80
2019-02-04T13:56:17.656Z,29.20
2019-02-04T13:58:58.587Z,28.90
2019-02-04T14:01:39.431Z,28.40
2019-02-04T14:04:20.029Z,29.50
2019-02-04T14:09:43.533Z,29.00
2019-02-04T14:12:24.106Z,29.10
2019-02-04T14:15:04.715Z,29.10
2019-02-04T14:17:45.619Z,29.80
2019-02-04T14:20:26.304Z,30.40
2019-02-04T14:23:06.951Z,30.60
2019-02-04T14:25:47.695Z,30.90
2019-02-04T14:28:31.297Z,31.50
2019-02-04T14:31:10.715Z,32.20
2019-02-04T14:33:51.341Z,32.20
2019-02-04T14:36:31.939Z,31.80
2019-02-04T14:39:12.568Z,32.00
2019-02-04T14:41:53.462Z,32.50
2019-02-04T14:44:34.240Z,32.70
2019-02-04T14:47:15.063Z,33.00
2019-02-04T14:49:55.800Z,33.20
2019-02-04T14:52:36.664Z,33.20
2019-02-04T14:55:17.520Z,33.60
2019-02-04T14:57:58.547Z,33.20
2019-02-04T15:00:39.295Z,32.70
2019-02-04T15:03:20.213Z,32.40
2019-02-04T15:06:00.888Z,31.70
2019-02-04T15:08:41.687Z,33.00
2019-02-04T15:11:22.340Z,33.30
2019-02-04T15:16:46.359Z,33.00
2019-02-04T15:19:27.023Z,32.80
2019-02-04T15:22:08.846Z,33.50
2019-02-04T15:25:01.122Z,34.10
2019-02-04T15:28:12.568Z,34.60
2019-02-04T15:31:19.673Z,33.90
2019-02-04T15:34:28.251Z,36.30
2019-02-04T15:37:36.783Z,36.70
2019-02-04T15:40:45.363Z,36.80
2019-02-04T15:43:52.506Z,37.30
2019-02-04T15:46:42.103Z,37.00
2019-02-04T15:49:51.083Z,37.00
2019-02-04T15:52:45.425Z,37.00
2019-02-04T15:55:28.515Z,36.80
2019-02-04T15:58:16.316Z,37.80
2019-02-04T16:01:05.814Z,37.90
2019-02-04T16:03:53.614Z,37.90
2019-02-04T16:06:41.624Z,38.30
2019-02-04T16:09:29.926Z,38.90
2019-02-04T16:12:11.174Z,38.80
2019-02-04T16:14:51.812Z,39.00
2019-02-04T16:17:32.757Z,39.30
2019-02-04T16:20:13.487Z,39.30
2019-02-04T16:22:58.620Z,38.60
2019-02-04T16:25:37.063Z,39.70
2019-02-04T16:28:18.167Z,39.10
2019-02-04T16:30:59.573Z,38.60
2019-02-04T16:33:40.606Z,38.50
2019-02-04T16:36:21.525Z,38.90
2019-02-04T16:39:02.469Z,39.00
2019-02-04T16:44:26.051Z,38.50
2019-02-04T16:47:06.820Z,38.80
2019-02-04T16:49:47.957Z,39.30
2019-02-04T16:52:28.279Z,39.40
2019-02-04T16:55:09.323Z,39.50
2019-02-04T16:57:50.075Z,39.50
2019-02-04T17:00:30.877Z,39.20
2019-02-04T17:03:11.719Z,39.20
2019-02-04T17:05:52.577Z,39.10
2019-02-04T17:08:33.493Z,38.40
2019-02-04T17:11:14.423Z,39.50
2019-02-04T17:13:55.294Z,38.60
2019-02-04T17:16:36.113Z,39.00
2019-02-04T17:19:17.101Z,38.50
2019-02-04T17:21:57.579Z,38.90
2019-02-04T17:24:38.624Z,38.80
2019-02-04T17:27:19.663Z,39.30
2019-02-04T17:29:48.184Z,38.60
2019-02-04T17:32:36.032Z,39.60
2019-02-04T17:35:24.017Z,38.60
2019-02-04T17:38:11.855Z,39.50
2019-02-04T17:41:01.398Z,40.20
2019-02-04T17:43:49.307Z,40.10
2019-02-04T17:46:37.104Z,40.00
2019-02-04T17:49:25.045Z,39.30
2019-02-04T17:52:13.013Z,40.00
2019-02-04T17:55:00.903Z,40.70
2019-02-04T17:57:48.807Z,40.20
2019-02-04T18:00:55.807Z,39.70
2019-02-04T18:03:43.643Z,39.50
2019-02-04T18:06:31.730Z,39.50
2019-02-04T18:09:21.086Z,39.90
2019-02-04T18:12:02.250Z,40.30
2019-02-04T18:14:43.286Z,40.40
2019-02-04T18:17:23.952Z,40.50
2019-02-04T18:20:04.439Z,40.00
2019-02-04T18:22:45.377Z,40.70
2019-02-04T18:25:26.325Z,40.60
2019-02-04T18:28:07.274Z,40.60
2019-02-04T18:30:36.102Z,40.60
2019-02-04T18:33:23.879Z,41.20
2019-02-04T18:39:26.099Z,40.70
2019-02-04T18:42:14.066Z,41.20
2019-02-04T18:45:24.290Z,40.90
2019-02-04T18:48:12.166Z,41.20
2019-02-04T18:51:01.675Z,41.50
2019-02-04T18:53:57.422Z,41.70
2019-02-04T18:56:39.100Z,41.80
2019-02-04T18:59:26.875Z,41.10
2019-02-04T19:02:16.412Z,41.50
2019-02-04T19:05:26.869Z,42.00
2019-02-04T19:08:14.514Z,42.10
2019-02-04T19:10:55.414Z,42.20
2019-02-04T19:13:36.898Z,41.50
2019-02-04T19:16:17.563Z,42.00
2019-02-04T19:18:58.461Z,43.10
2019-02-04T19:21:39.855Z,43.20
2019-02-04T19:24:20.752Z,43.20
2019-02-04T19:27:01.900Z,43.20
2019-02-04T19:29:42.433Z,43.70
2019-02-04T19:32:23.275Z,44.00
2019-02-04T19:35:04.424Z,43.70
2019-02-04T19:37:45.391Z,43.20
2019-02-04T19:40:26.258Z,43.60
2019-02-04T19:43:06.521Z,43.60
2019-02-04T19:45:47.526Z,43.30
2019-02-04T19:48:28.351Z,43.00
2019-02-04T19:51:09.333Z,42.60
2019-02-04T19:53:50.644Z,42.60
2019-02-04T19:56:31.528Z,43.20
2019-02-04T19:59:12.155Z,43.40
2019-02-04T20:01:52.984Z,43.60
2019-02-04T20:04:33.764Z,43.10
2019-02-04T20:07:14.827Z,44.10
2019-02-04T20:09:55.970Z,43.10
2019-02-04T20:12:36.699Z,43.60
2019-02-04T20:15:17.464Z,43.20
2019-02-04T20:17:58.815Z,43.30
2019-02-04T20:20:42.333Z,43.40
2019-02-04T20:23:22.265Z,43.50
2019-02-04T20:26:04.067Z,43.60
2019-02-04T20:28:48.356Z,43.90
2019-02-04T20:31:29.775Z,44.30
2019-02-04T20:34:12.567Z,43.90
2019-02-04T20:36:54.758Z,44.20
2019-02-04T20:39:36.807Z,43.70
2019-02-04T20:42:19.167Z,44.10
2019-02-04T20:45:00.233Z,43.70
2019-02-04T20:47:41.259Z,44.20
2019-02-04T20:50:22.256Z,44.30
2019-02-04T20:53:03.441Z,44.60
2019-02-04T20:55:44.252Z,44.20
2019-02-04T20:58:26.784Z,44.30
2019-02-04T21:01:08.236Z,43.50
2019-02-04T21:03:49.367Z,44.20
2019-02-04T21:06:30.316Z,43.70
2019-02-04T21:09:11.370Z,44.30
2019-02-04T21:11:52.536Z,43.90
2019-02-04T21:14:33.663Z,44.20
2019-02-04T21:17:16.879Z,44.20
2019-02-04T21:19:57.882Z,44.10
2019-02-04T21:22:38.743Z,44.00
2019-02-04T21:25:19.819Z,44.80
2019-02-04T21:28:25.194Z,44.50
2019-02-04T21:30:55.937Z,45.00
2019-02-04T21:33:36.344Z,44.90
2019-02-04T21:36:19.121Z,45.10
2019-02-04T21:39:00.745Z,45.90
2019-02-04T21:41:43.366Z,46.00
2019-02-04T21:44:24.327Z,45.80
2019-02-04T21:47:05.202Z,46.30
2019-02-04T21:49:48.924Z,46.40
2019-02-04T21:52:17.695Z,46.30
2019-02-04T21:55:26.658Z,47.20
2019-02-04T21:58:15.180Z,46.50
2019-02-04T22:01:03.117Z,47.80
2019-02-04T22:03:50.885Z,46.80
2019-02-04T22:06:38.683Z,47.50
2019-02-04T22:09:26.463Z,46.70
2019-02-04T22:12:06.959Z,46.20
2019-02-04T22:14:47.483Z,45.60
2019-02-04T22:17:28.042Z,46.10
2019-02-04T22:20:08.489Z,46.30
2019-02-04T22:22:49.253Z,46.30
2019-02-04T22:25:29.807Z,46.20
2019-02-04T22:28:10.814Z,46.10
2019-02-04T22:30:51.465Z,45.80
2019-02-04T22:33:32.295Z,46.10
2019-02-04T22:36:13.275Z,46.30
2019-02-04T22:38:53.977Z,46.50
2019-02-04T22:41:34.657Z,45.80
2019-02-04T22:44:15.450Z,46.00
2019-02-04T22:46:55.995Z,45.90
2019-02-04T22:49:36.648Z,45.50
2019-02-04T22:52:17.399Z,45.70
2019-02-04T22:54:58.395Z,45.60
2019-02-04T22:57:39.074Z,45.10
2019-02-04T23:00:20.680Z,45.40
2019-02-04T23:03:01.873Z,44.90
2019-02-04T23:05:42.591Z,44.90
2019-02-04T23:08:23.119Z,45.80
2019-02-04T23:11:04.300Z,45.20
2019-02-04T23:13:45.830Z,45.00
2019-02-04T23:16:26.236Z,45.50
2019-02-04T23:19:07.296Z,45.70
2019-02-04T23:21:48.156Z,45.10
2019-02-04T23:24:29.312Z,44.80
2019-02-04T23:27:10.154Z,45.30
2019-02-04T23:29:50.866Z,45.50
2019-02-04T23:32:31.507Z,45.40
2019-02-04T23:35:12.098Z,45.80
2019-02-04T23:37:52.791Z,45.50
2019-02-04T23:40:33.612Z,44.50
2019-02-04T23:43:14.644Z,45.30
2019-02-04T23:45:55.191Z,45.00
2019-02-04T23:48:35.663Z,45.30
2019-02-04T23:51:16.475Z,45.50
2019-02-04T23:53:57.413Z,45.60
2019-02-04T23:56:37.944Z,45.50
2019-02-04T23:59:06.468Z,45.30
